Time;durP1;ratioP1;P1;durP2;ratioP2;P2;SDS_P1;SDS_P2;PMS_P1;PMS_P2;Temp;Humidity;BMP_temperature;BMP_pressure;BME280_temperature;BME280_humidity;BME280_pressure;Samples;Min_cycle;Max_cycle;Signal;HPM_P1;HPM_P2
2023/08/25 00:01:10;;;;;;;29.47;15.87;;;;;;;17.92;100.00;100754.06;4920499;29;20031;-89
2023/08/25 00:03:38;;;;;;;26.55;15.75;;;;;;;17.93;100.00;100763.97;4920047;29;20028;-89
2023/08/25 00:06:06;;;;;;;27.73;15.90;;;;;;;17.87;100.00;100769.38;4920281;29;20059;-89
2023/08/25 00:08:31;;;;;;;26.58;16.08;;;;;;;17.85;100.00;100768.00;4920266;29;20055;-89
2023/08/25 00:10:57;;;;;;;28.10;15.37;;;;;;;17.86;100.00;100775.97;4919862;29;20023;-89
2023/08/25 00:13:28;;;;;;;29.57;16.13;;;;;;;17.87;100.00;100774.88;4920463;29;20472;-88
2023/08/25 00:15:53;;;;;;;30.17;16.15;;;;;;;17.84;100.00;100783.63;4920397;29;20530;-88
2023/08/25 00:18:19;;;;;;;30.30;17.27;;;;;;;17.85;100.00;100781.75;4920383;29;20036;-89
2023/08/25 00:20:46;;;;;;;28.87;17.40;;;;;;;17.82;100.00;100779.50;4920218;29;20055;-89
2023/08/25 00:23:14;;;;;;;29.77;18.23;;;;;;;17.81;100.00;100778.69;4889800;29;20186;-90
2023/08/25 00:25:44;;;;;;;27.00;16.77;;;;;;;17.78;100.00;100781.16;4904249;29;20067;-89
2023/08/25 00:28:10;;;;;;;30.23;17.58;;;;;;;17.73;100.00;100773.72;4920230;29;20468;-89
2023/08/25 00:30:35;;;;;;;36.50;18.00;;;;;;;17.73;100.00;100775.63;4919963;29;20046;-89
2023/08/25 00:33:01;;;;;;;29.67;17.23;;;;;;;17.74;100.00;100777.28;4903895;29;20448;-89
2023/08/25 00:35:31;;;;;;;29.52;18.42;;;;;;;17.74;100.00;100785.50;4904273;29;20058;-89
2023/08/25 00:37:58;;;;;;;28.67;18.40;;;;;;;17.75;100.00;100787.16;4919821;29;20032;-89
2023/08/25 00:40:23;;;;;;;29.13;18.08;;;;;;;17.70;100.00;100785.19;4919969;29;20028;-89
2023/08/25 00:42:51;;;;;;;32.03;18.50;;;;;;;17.70;100.00;100786.03;4919763;29;20103;-89
2023/08/25 00:45:16;;;;;;;29.42;18.17;;;;;;;17.67;100.00;100778.34;4919885;29;20126;-89
2023/08/25 00:47:44;;;;;;;28.43;17.97;;;;;;;17.65;100.00;100785.16;4936780;29;20500;-89
2023/08/25 00:50:11;;;;;;;30.05;17.83;;;;;;;17.66;100.00;100781.34;4911300;29;20043;-89
2023/08/25 00:52:37;;;;;;;29.15;18.20;;;;;;;17.68;100.00;100781.91;4920132;29;20035;-89
2023/08/25 00:55:05;;;;;;;36.08;18.20;;;;;;;17.66;100.00;100778.59;4936790;29;20038;-89
2023/08/25 00:57:31;;;;;;;32.88;19.00;;;;;;;17.65;100.00;100769.53;4919308;29;20051;-89
2023/08/25 00:59:59;;;;;;;30.70;18.07;;;;;;;17.62;100.00;100772.00;4919435;29;20461;-88
2023/08/25 01:02:25;;;;;;;31.92;18.60;;;;;;;17.62;100.00;100774.72;4920015;29;20162;-89
2023/08/25 01:04:50;;;;;;;37.20;18.17;;;;;;;17.59;100.00;100776.06;4936489;29;20520;-89
2023/08/25 01:07:16;;;;;;;33.17;18.17;;;;;;;17.64;100.00;100778.88;4919333;29;20043;-89
2023/08/25 01:09:42;;;;;;;32.03;18.27;;;;;;;17.67;100.00;100785.72;4936549;29;20040;-89
2023/08/25 01:12:27;;;;;;;32.78;18.20;;;;;;;17.63;100.00;100768.16;4918950;29;20418;-89
2023/08/25 01:15:14;;;;;;;33.10;18.42;;;;;;;17.63;100.00;100774.47;4937074;29;20031;-89
2023/08/25 01:17:57;;;;;;;29.65;17.15;;;;;;;17.66;100.00;100770.38;4936201;29;20032;-89
2023/08/25 01:20:25;;;;;;;32.03;19.07;;;;;;;17.67;100.00;100770.09;4920219;29;20040;-89
2023/08/25 01:22:59;;;;;;;33.72;18.67;;;;;;;17.67;100.00;100769.25;4919020;29;20126;-88
2023/08/25 01:25:25;;;;;;;36.38;18.13;;;;;;;17.70;100.00;100769.56;4919012;29;20051;-89
2023/08/25 01:27:52;;;;;;;30.50;18.00;;;;;;;17.69;100.00;100759.69;4936307;29;20031;-89
2023/08/25 01:30:18;;;;;;;36.53;19.02;;;;;;;17.67;100.00;100766.50;4936527;29;20058;-89
2023/08/25 01:32:46;;;;;;;35.83;18.52;;;;;;;17.64;100.00;100756.06;4919161;29;20044;-89
2023/08/25 01:35:14;;;;;;;32.20;18.92;;;;;;;17.73;100.00;100761.88;4919334;29;20040;-89
2023/08/25 01:37:59;;;;;;;33.70;19.20;;;;;;;17.72;100.00;100758.34;4903701;29;20130;-89
2023/08/25 01:40:33;;;;;;;38.42;20.33;;;;;;;17.77;100.00;100754.78;4937070;29;20028;-89
2023/08/25 01:43:02;;;;;;;34.35;19.02;;;;;;;17.86;100.00;100756.78;4919428;29;20039;-89
2023/08/25 01:45:28;;;;;;;31.08;18.88;;;;;;;17.90;100.00;100756.28;4903927;29;20091;-89
2023/08/25 01:47:56;;;;;;;35.88;20.10;;;;;;;17.99;100.00;100760.16;4919107;29;20461;-89
2023/08/25 01:50:21;;;;;;;33.70;18.50;;;;;;;17.99;100.00;100749.16;4903558;29;20059;-89
2023/08/25 01:52:48;;;;;;;34.38;19.15;;;;;;;17.97;100.00;100748.63;4918985;29;20388;-89
2023/08/25 01:55:14;;;;;;;32.67;18.48;;;;;;;18.00;100.00;100748.09;4918730;29;20476;-90
2023/08/25 01:57:39;;;;;;;34.33;19.17;;;;;;;17.99;100.00;100747.25;4903481;29;20186;-89
2023/08/25 02:00:05;;;;;;;30.90;18.57;;;;;;;18.01;100.00;100742.31;4902914;29;20055;-89
2023/08/25 02:02:31;;;;;;;34.20;18.67;;;;;;;18.06;100.00;100738.78;4903224;29;20035;-89
2023/08/25 02:04:56;;;;;;;31.13;19.20;;;;;;;18.11;100.00;100741.53;4902921;29;20553;-88
2023/08/25 02:07:24;;;;;;;32.22;19.45;;;;;;;18.15;100.00;100744.56;4918983;29;20036;-89
2023/08/25 02:09:53;;;;;;;33.57;19.33;;;;;;;18.13;100.00;100741.25;4903087;29;20036;-89
2023/08/25 02:12:18;;;;;;;33.47;20.73;;;;;;;18.21;100.00;100738.00;4918809;29;20027;-88
2023/08/25 02:14:44;;;;;;;34.40;20.80;;;;;;;18.24;100.00;100740.19;4904569;29;20035;-89
2023/08/25 02:17:12;;;;;;;37.25;20.92;;;;;;;18.20;100.00;100730.84;4906558;29;20043;-87
2023/08/25 02:19:37;;;;;;;36.50;20.53;;;;;;;18.24;100.00;100738.28;4922532;29;20035;-88
2023/08/25 02:22:04;;;;;;;34.28;20.02;;;;;;;18.24;100.00;100720.97;4922412;29;20522;-88
2023/08/25 02:24:32;;;;;;;38.93;21.33;;;;;;;18.24;100.00;100731.97;4922785;29;20135;-89
2023/08/25 02:27:03;;;;;;;35.35;22.17;;;;;;;18.27;100.00;100725.13;4939242;29;20032;-89
2023/08/25 02:29:29;;;;;;;41.85;24.42;;;;;;;18.24;100.00;100727.28;4907927;29;20032;-89
2023/08/25 02:31:56;;;;;;;40.95;23.58;;;;;;;18.30;100.00;100728.13;4921929;29;20477;-89
2023/08/25 02:34:22;;;;;;;41.90;23.90;;;;;;;18.25;100.00;100730.88;4939097;29;20094;-89
2023/08/25 02:36:48;;;;;;;40.73;24.17;;;;;;;18.33;100.00;100711.13;4922235;29;20036;-89
2023/08/25 02:39:14;;;;;;;43.20;25.63;;;;;;;18.30;100.00;100700.66;4921834;29;20032;-88
2023/08/25 02:41:40;;;;;;;43.63;25.25;;;;;;;18.37;100.00;100700.44;4922110;29;20028;-88
2023/08/25 02:44:07;;;;;;;43.80;25.70;;;;;;;18.37;100.00;100694.94;4905716;29;20040;-88
2023/08/25 02:46:35;;;;;;;41.75;24.73;;;;;;;18.39;100.00;100701.81;4921760;29;20035;-88
2023/08/25 02:49:00;;;;;;;49.33;25.92;;;;;;;18.38;100.00;100696.56;4921660;29;20066;-89
2023/08/25 02:51:28;;;;;;;45.87;25.53;;;;;;;18.39;100.00;100695.47;4905918;29;20071;-89
2023/08/25 02:53:56;;;;;;;48.53;26.98;;;;;;;18.42;100.00;100692.19;4921653;29;20473;-88
2023/08/25 02:56:21;;;;;;;44.57;25.90;;;;;;;18.46;100.00;100695.22;4921510;29;20083;-89
2023/08/25 02:58:47;;;;;;;43.58;26.30;;;;;;;18.43;100.00;100693.84;4921484;29;20071;-88
2023/08/25 03:01:13;;;;;;;45.73;25.27;;;;;;;18.46;100.00;100687.81;4905488;29;20035;-88
2023/08/25 03:03:40;;;;;;;46.17;26.38;;;;;;;18.42;100.00;100681.19;4921661;29;20405;-88
2023/08/25 03:06:08;;;;;;;44.08;25.15;;;;;;;18.42;100.00;100681.19;4921580;29;20040;-88
2023/08/25 03:08:36;;;;;;;47.70;25.50;;;;;;;18.46;100.00;100679.56;4921425;29;20388;-89
2023/08/25 03:11:03;;;;;;;47.17;26.27;;;;;;;18.46;100.00;100671.31;4921729;29;20031;-89
2023/08/25 03:13:31;;;;;;;44.78;26.08;;;;;;;18.49;100.00;100673.53;4921036;29;20032;-89
2023/08/25 03:15:59;;;;;;;44.67;25.83;;;;;;;18.39;100.00;100666.09;4920956;29;20066;-89
2023/08/25 03:18:25;;;;;;;41.08;25.27;;;;;;;18.46;100.00;100667.75;4921536;29;20118;-89
2023/08/25 03:20:54;;;;;;;43.70;26.17;;;;;;;18.43;100.00;100665.56;4921188;29;20123;-89
2023/08/25 03:23:20;;;;;;;43.08;25.35;;;;;;;18.51;100.00;100659.50;4921432;29;20032;-88
2023/08/25 03:25:48;;;;;;;45.63;26.45;;;;;;;18.47;100.00;100661.16;4919792;29;20032;-91
2023/08/25 03:28:13;;;;;;;44.72;25.23;;;;;;;18.51;100.00;100651.25;4905006;29;20058;-89
2023/08/25 03:30:50;;;;;;;41.50;25.30;;;;;;;18.50;100.00;100657.84;4920969;29;20059;-89
2023/08/25 03:33:15;;;;;;;45.42;25.38;;;;;;;18.47;100.00;100656.50;4920610;29;20071;-89
2023/08/25 03:35:40;;;;;;;42.17;25.47;;;;;;;18.49;100.00;100650.72;4905008;29;20073;-89
2023/08/25 03:38:06;;;;;;;42.37;25.73;;;;;;;18.52;100.00;100650.19;4921669;29;20040;-88
2023/08/25 03:40:34;;;;;;;44.15;25.73;;;;;;;18.57;100.00;100637.28;4920389;29;20425;-89
2023/08/25 03:42:59;;;;;;;46.67;24.80;;;;;;;18.56;100.00;100640.28;4905267;29;20091;-89
2023/08/25 03:45:28;;;;;;;49.25;26.83;;;;;;;18.56;100.00;100632.88;4920539;29;20444;-89
2023/08/25 03:47:55;;;;;;;44.78;25.30;;;;;;;18.57;100.00;100631.78;4920680;29;20050;-89
2023/08/25 03:50:20;;;;;;;46.00;25.53;;;;;;;18.59;100.00;100640.56;4920371;29;20536;-89
2023/08/25 03:52:49;;;;;;;45.88;25.83;;;;;;;18.54;100.00;100640.56;4920436;29;20036;-89
2023/08/25 03:55:14;;;;;;;47.27;25.03;;;;;;;18.56;100.00;100637.56;4921210;29;20071;-89
2023/08/25 03:57:42;;;;;;;43.08;24.42;;;;;;;18.60;100.00;100644.13;4904663;29;20110;-89
2023/08/25 04:00:08;;;;;;;44.93;26.03;;;;;;;18.60;100.00;100635.88;4921175;29;20039;-89
2023/08/25 04:02:39;;;;;;;44.05;25.83;;;;;;;18.60;100.00;100638.63;4920441;29;20032;-89
2023/08/25 04:05:06;;;;;;;48.50;26.65;;;;;;;18.56;100.00;100629.31;4905447;29;20111;-90
2023/08/25 04:07:40;;;;;;;49.67;26.30;;;;;;;18.51;100.00;100634.78;4936966;29;20042;-90
2023/08/25 04:10:06;;;;;;;46.03;26.17;;;;;;;18.51;100.00;100632.88;4904867;29;20043;-90
2023/08/25 04:12:34;;;;;;;48.97;25.42;;;;;;;18.54;100.00;100624.09;4920991;29;20040;-90
2023/08/25 04:14:59;;;;;;;47.07;26.10;;;;;;;18.52;100.00;100629.00;4920572;29;20035;-90
2023/08/25 04:17:29;;;;;;;41.05;25.98;;;;;;;18.54;100.00;100628.75;4937661;29;20118;-89
2023/08/25 04:19:56;;;;;;;48.43;25.90;;;;;;;18.52;100.00;100628.19;4920918;29;20548;-90
2023/08/25 04:22:22;;;;;;;46.90;26.88;;;;;;;18.46;100.00;100627.38;4920606;29;20067;-90
2023/08/25 04:24:47;;;;;;;43.70;26.67;;;;;;;18.44;100.00;100621.34;4920379;29;20028;-89
2023/08/25 04:27:13;;;;;;;45.75;26.05;;;;;;;18.37;100.00;100616.09;4920108;29;20032;-90
2023/08/25 04:29:38;;;;;;;46.60;26.33;;;;;;;18.38;100.00;100625.16;4920105;29;20031;-90
2023/08/25 04:32:04;;;;;;;51.87;26.17;;;;;;;18.36;100.00;100616.38;4920057;29;20067;-90
2023/08/25 04:34:32;;;;;;;52.73;26.40;;;;;;;18.37;100.00;100626.28;4936936;29;20118;-90
2023/08/25 04:36:58;;;;;;;49.55;27.02;;;;;;;18.40;100.00;100628.47;4937267;29;20027;-89
2023/08/25 04:39:23;;;;;;;48.33;26.33;;;;;;;18.41;100.00;100630.13;4906784;29;20504;-89
2023/08/25 04:41:49;;;;;;;53.13;27.73;;;;;;;18.36;100.00;100630.09;4939605;29;20031;-90
2023/08/25 04:44:16;;;;;;;52.57;27.40;;;;;;;18.40;100.00;100637.53;4906822;29;20036;-90
2023/08/25 04:46:42;;;;;;;53.70;28.13;;;;;;;18.40;100.00;100640.28;4939619;29;20031;-90
2023/08/25 04:49:13;;;;;;;49.47;27.10;;;;;;;18.44;100.00;100628.72;4940504;29;20046;-90
2023/08/25 04:51:39;;;;;;;49.58;27.52;;;;;;;18.49;100.00;100621.31;4922882;29;20120;-90
2023/08/25 04:54:04;;;;;;;52.57;29.20;;;;;;;18.48;100.00;100622.41;4924418;29;20458;-90
2023/08/25 04:56:32;;;;;;;51.00;27.70;;;;;;;18.51;100.00;100623.78;4922359;29;20534;-90
2023/08/25 04:58:58;;;;;;;44.80;26.47;;;;;;;18.52;100.00;100612.53;4920488;29;20039;-89
2023/08/25 05:01:23;;;;;;;47.38;26.73;;;;;;;18.53;100.00;100614.19;4938365;29;20036;-90
2023/08/25 05:03:49;;;;;;;47.27;27.03;;;;;;;18.55;100.00;100605.69;4921627;29;20495;-90
2023/08/25 05:06:14;;;;;;;45.67;25.63;;;;;;;18.58;100.00;100603.19;4920458;29;20481;-90
2023/08/25 05:08:40;;;;;;;47.03;26.30;;;;;;;18.57;100.00;100601.56;4920605;29;20035;-90
2023/08/25 05:11:05;;;;;;;44.03;25.13;;;;;;;18.55;100.00;100600.19;4904233;29;20039;-90
2023/08/25 05:13:34;;;;;;;43.30;24.88;;;;;;;18.53;100.00;100605.94;4937072;29;20071;-90
2023/08/25 05:15:59;;;;;;;46.13;25.37;;;;;;;18.57;100.00;100612.53;4903726;29;20059;-90
2023/08/25 05:18:25;;;;;;;42.47;24.00;;;;;;;18.60;100.00;100605.66;4919409;29;20078;-89
2023/08/25 05:20:50;;;;;;;43.97;24.70;;;;;;;18.59;100.00;100606.78;4919440;29;20031;-90
2023/08/25 05:23:16;;;;;;;38.47;24.03;;;;;;;18.57;100.00;100606.22;4919949;29;20036;-90
2023/08/25 05:25:41;;;;;;;38.95;23.40;;;;;;;18.60;100.00;100608.41;4936424;29;20078;-90
2023/08/25 05:28:07;;;;;;;39.37;22.03;;;;;;;18.67;100.00;100611.69;4919304;29;20477;-90
2023/08/25 05:30:32;;;;;;;36.10;21.40;;;;;;;18.68;100.00;100618.84;4919255;29;20028;-88
2023/08/25 05:33:00;;;;;;;38.17;23.97;;;;;;;18.66;100.00;100631.22;4937029;29;20035;-88
2023/08/25 05:35:28;;;;;;;39.78;22.75;;;;;;;18.65;100.00;100616.66;4919592;29;20079;-87
2023/08/25 05:37:56;;;;;;;35.13;19.98;;;;;;;18.71;100.00;100601.81;4936485;29;20040;-88
2023/08/25 05:40:24;;;;;;;31.77;17.88;;;;;;;18.78;100.00;100604.28;4903258;29;20487;-87
2023/08/25 05:42:49;;;;;;;32.40;17.67;;;;;;;18.83;100.00;100603.47;4936443;29;20031;-89
2023/08/25 05:45:14;;;;;;;25.43;17.10;;;;;;;18.87;100.00;100601.84;4919607;29;20038;-88
2023/08/25 05:47:42;;;;;;;23.70;14.47;;;;;;;18.87;100.00;100601.84;4936184;29;20465;-87
2023/08/25 05:50:08;;;;;;;22.83;14.13;;;;;;;18.95;100.00;100593.03;4938258;29;20480;-89
2023/08/25 05:52:34;;;;;;;24.08;13.65;;;;;;;18.90;100.00;100598.53;4923223;29;20019;-92
2023/08/25 05:54:59;;;;;;;20.47;12.80;;;;;;;18.87;100.00;100597.16;4922921;29;20024;-91
2023/08/25 05:57:24;;;;;;;20.17;12.77;;;;;;;18.86;100.00;100589.19;4939770;29;20071;-91
2023/08/25 05:59:50;;;;;;;18.97;12.30;;;;;;;18.88;100.00;100589.72;4907086;29;20046;-91
2023/08/25 06:02:15;;;;;;;23.52;12.25;;;;;;;18.84;100.00;100589.44;4923396;29;20579;-93
2023/08/25 06:04:41;;;;;;;18.63;12.13;;;;;;;18.84;100.00;100588.59;4922724;29;20034;-89
2023/08/25 06:07:07;;;;;;;17.27;10.63;;;;;;;18.84;100.00;100575.69;4922688;29;20042;-90
2023/08/25 06:09:32;;;;;;;14.85;10.15;;;;;;;18.81;100.00;100568.00;4939539;29;20488;-90
2023/08/25 06:11:59;;;;;;;15.13;9.70;;;;;;;18.78;100.00;100587.81;4922009;29;20031;-90
2023/08/25 06:14:25;;;;;;;17.27;10.95;;;;;;;18.77;100.00;100584.22;4939481;29;20036;-89
2023/08/25 06:16:50;;;;;;;15.03;9.77;;;;;;;18.72;100.00;100581.50;4939438;29;20082;-90
2023/08/25 06:19:16;;;;;;;13.60;9.83;;;;;;;18.69;100.00;100586.69;4921980;29;20138;-91
2023/08/25 06:21:41;;;;;;;13.50;9.97;;;;;;;18.70;100.00;100599.34;4939127;29;20748;-90
2023/08/25 06:24:07;;;;;;;15.63;10.40;;;;;;;18.67;100.00;100597.97;4921949;29;20130;-90
2023/08/25 06:26:33;;;;;;;18.10;10.37;;;;;;;18.68;100.00;100591.38;4922788;29;20368;-89
2023/08/25 06:28:59;;;;;;;15.55;10.30;;;;;;;18.67;100.00;100619.94;4922159;29;20028;-90
2023/08/25 06:31:24;;;;;;;20.17;10.73;;;;;;;18.64;100.00;100611.44;4922002;29;20023;-90
2023/08/25 06:33:50;;;;;;;20.00;10.17;;;;;;;18.62;100.00;100611.72;4921789;29;20032;-90
2023/08/25 06:36:18;;;;;;;17.90;9.97;;;;;;;18.57;100.00;100614.44;4921705;29;20089;-90
2023/08/25 06:38:43;;;;;;;14.90;10.27;;;;;;;18.55;100.00;100601.00;4906429;29;20040;-90
2023/08/25 06:41:09;;;;;;;15.80;10.23;;;;;;;18.56;100.00;100591.66;4939009;29;20389;-89
2023/08/25 06:43:34;;;;;;;17.80;10.55;;;;;;;18.56;100.00;100585.34;4906173;29;20378;-90
2023/08/25 06:46:00;;;;;;;16.40;10.17;;;;;;;18.59;100.00;100591.09;4921678;29;20047;-89
2023/08/25 06:48:28;;;;;;;20.07;10.20;;;;;;;18.57;100.00;100597.97;4938746;29;20536;-92
2023/08/25 06:50:53;;;;;;;14.30;10.02;;;;;;;18.51;100.00;100586.19;4938998;29;20042;-93
2023/08/25 06:53:19;;;;;;;16.97;10.57;;;;;;;18.49;100.00;100571.88;4922684;29;20035;-94
2023/08/25 06:55:44;;;;;;;17.75;10.52;;;;;;;18.48;100.00;100567.47;4923191;29;20087;-94
2023/08/25 06:58:12;;;;;;;16.07;10.57;;;;;;;18.52;100.00;100545.78;4922360;29;20070;-93
2023/08/25 07:00:43;;;;;;;15.60;10.20;;;;;;;18.50;100.00;100524.09;4923178;29;20028;-93
2023/08/25 07:03:11;;;;;;;18.70;11.30;;;;;;;18.47;100.00;100518.31;4939310;29;20115;-93
2023/08/25 07:05:38;;;;;;;25.03;11.27;;;;;;;18.42;100.00;100535.63;4921881;29;20035;-93
2023/08/25 07:08:07;;;;;;;15.63;10.52;;;;;;;18.38;100.00;100543.59;4922209;29;20094;-92
2023/08/25 07:10:35;;;;;;;15.85;10.20;;;;;;;18.33;100.00;100551.81;4939431;29;20464;-93
2023/08/25 07:13:03;;;;;;;21.02;11.15;;;;;;;18.33;100.00;100546.34;4922330;29;20032;-93
2023/08/25 07:15:32;;;;;;;18.30;10.82;;;;;;;18.35;100.00;100527.69;4922330;29;20039;-93
2023/08/25 07:18:02;;;;;;;18.00;11.80;;;;;;;18.35;100.00;100535.06;4906323;29;20036;-92
2023/08/25 07:20:34;;;;;;;21.75;12.98;;;;;;;18.26;100.00;100559.50;4922304;29;20036;-93
2023/08/25 07:23:02;;;;;;;21.40;13.48;;;;;;;18.18;100.00;100629.53;4907590;29;20036;-93
2023/08/25 07:25:27;;;;;;;29.05;13.80;;;;;;;18.03;100.00;100695.38;4921295;29;20038;-91
2023/08/25 07:27:53;;;;;;;64.70;13.77;;;;;;;17.86;100.00;100674.44;4922057;29;20032;-92
2023/08/25 07:30:18;;;;;;;35.67;12.13;;;;;;;17.76;100.00;100596.72;4938796;29;20039;-94
2023/08/25 07:32:51;;;;;;;32.43;13.53;;;;;;;17.88;100.00;100583.59;4921802;29;20464;-94
2023/08/25 07:35:17;;;;;;;26.92;13.18;;;;;;;17.92;100.00;100594.88;4922851;29;20445;-94
2023/08/25 07:37:43;;;;;;;31.50;14.77;;;;;;;17.90;100.00;100619.84;4921911;29;20028;-94
2023/08/25 07:40:10;;;;;;;38.20;15.38;;;;;;;18.03;100.00;100627.56;4938701;29;20487;-93
2023/08/25 07:42:38;;;;;;;34.10;15.68;;;;;;;18.10;100.00;100621.84;4921687;29;20032;-93
2023/08/25 07:45:04;;;;;;;34.22;16.95;;;;;;;18.13;100.00;100623.19;4905863;29;20465;-93
2023/08/25 07:47:30;;;;;;;28.13;15.13;;;;;;;18.07;100.00;100630.63;4921892;29;20032;-93
2023/08/25 07:49:55;;;;;;;31.35;15.27;;;;;;;17.88;100.00;100630.25;4938381;29;20042;-93
2023/08/25 07:52:21;;;;;;;30.93;14.67;;;;;;;17.83;100.00;100616.50;4921411;29;20514;-92
2023/08/25 07:54:46;;;;;;;26.97;15.53;;;;;;;17.84;100.00;100623.66;4938484;29;20046;-92
2023/08/25 07:57:14;;;;;;;29.20;16.60;;;;;;;17.83;100.00;100622.00;4920720;29;20052;-93
2023/08/25 07:59:42;;;;;;;28.73;15.30;;;;;;;17.73;100.00;100619.22;4920534;29;20035;-93
2023/08/25 08:02:11;;;;;;;28.60;15.90;;;;;;;17.67;100.00;100615.63;4937938;29;20027;-92
2023/08/25 08:04:38;;;;;;;29.25;16.35;;;;;;;17.81;100.00;100615.97;4921420;29;20039;-94
2023/08/25 08:07:04;;;;;;;31.23;17.10;;;;;;;17.83;100.00;100620.09;4920695;29;20038;-91
2023/08/25 08:09:32;;;;;;;31.23;18.00;;;;;;;17.81;100.00;100640.66;4920840;29;20047;-91
2023/08/25 08:11:58;;;;;;;32.35;18.00;;;;;;;17.82;100.00;100645.88;4919839;29;20464;-91
2023/08/25 08:14:23;;;;;;;39.55;17.90;;;;;;;17.86;100.00;100637.91;4920692;29;20039;-91
2023/08/25 08:16:49;;;;;;;32.63;17.60;;;;;;;17.83;100.00;100622.00;4920698;29;20039;-91
2023/08/25 08:19:17;;;;;;;28.98;16.65;;;;;;;17.88;100.00;100633.00;4937439;29;20421;-91
2023/08/25 08:21:42;;;;;;;29.37;16.30;;;;;;;17.83;100.00;100611.88;4920249;29;20039;-91
2023/08/25 08:24:10;;;;;;;27.90;17.25;;;;;;;17.91;100.00;100599.56;4937307;29;20032;-91
2023/08/25 08:26:36;;;;;;;36.47;18.05;;;;;;;17.90;100.00;100602.56;4904827;29;20073;-90
2023/08/25 08:29:02;;;;;;;31.67;18.10;;;;;;;17.92;100.00;100608.59;4936992;29;20023;-91
2023/08/25 08:31:29;;;;;;;36.83;19.35;;;;;;;17.93;100.00;100599.28;4937582;29;20030;-91
2023/08/25 08:33:54;;;;;;;37.30;19.17;;;;;;;17.95;100.00;100594.34;4919752;29;20048;-90
2023/08/25 08:36:23;;;;;;;32.13;18.70;;;;;;;17.86;100.00;100605.00;4919879;29;20499;-90
2023/08/25 08:38:48;;;;;;;32.53;18.67;;;;;;;17.81;100.00;100632.44;4919510;29;20141;-89
2023/08/25 08:41:17;;;;;;;31.57;18.23;;;;;;;17.67;100.00;100638.41;4920358;29;20124;-89
2023/08/25 08:43:45;;;;;;;31.17;17.92;;;;;;;17.58;100.00;100636.44;4936818;29;20067;-90
2023/08/25 08:46:17;;;;;;;30.08;18.52;;;;;;;17.59;100.00;100635.34;4919586;29;20042;-89
2023/08/25 08:48:44;;;;;;;32.75;18.45;;;;;;;17.69;100.00;100619.75;4920021;29;20036;-89
2023/08/25 08:51:10;;;;;;;36.63;19.25;;;;;;;17.75;100.00;100628.03;4919816;29;20031;-89
2023/08/25 08:53:36;;;;;;;40.10;19.37;;;;;;;17.68;100.00;100644.72;4936642;29;20039;-89
2023/08/25 08:56:02;;;;;;;35.88;19.23;;;;;;;17.67;100.00;100652.13;4919287;29;20129;-90
2023/08/25 08:58:28;;;;;;;37.60;20.35;;;;;;;17.66;100.00;100644.97;4919429;29;20461;-89
2023/08/25 09:00:53;;;;;;;35.57;20.30;;;;;;;17.63;100.00;100634.56;4919257;29;20043;-89
2023/08/25 09:03:22;;;;;;;36.70;21.38;;;;;;;17.68;100.00;100641.97;4919330;29;20063;-89
2023/08/25 09:05:51;;;;;;;42.40;21.67;;;;;;;17.78;100.00;100606.34;4936546;29;20079;-90
2023/08/25 09:08:17;;;;;;;36.97;22.02;;;;;;;17.85;100.00;100600.63;4919126;29;20035;-89
2023/08/25 09:10:42;;;;;;;44.13;23.58;;;;;;;17.87;100.00;100640.41;4919221;29;20028;-89
2023/08/25 09:13:10;;;;;;;43.67;22.87;;;;;;;17.74;100.00;100657.34;4919438;29;20070;-90
2023/08/25 09:15:36;;;;;;;42.53;21.45;;;;;;;17.69;100.00;100652.69;4936949;29;20036;-93
2023/08/25 09:18:08;;;;;;;42.20;22.13;;;;;;;17.80;100.00;100617.03;4919668;29;20114;-92
2023/08/25 09:20:38;;;;;;;47.85;23.98;;;;;;;17.98;100.00;100597.38;4920331;29;20028;-92
2023/08/25 09:23:06;;;;;;;47.77;24.03;;;;;;;18.29;100.00;100577.38;4919879;29;20090;-91
2023/08/25 09:26:04;;;;;;;55.92;25.08;;;;;;;18.53;100.00;100597.72;4939624;29;20036;-91
2023/08/25 09:28:35;;;;;;;63.53;27.85;;;;;;;18.55;100.00;100617.47;4923303;29;20035;-90
2023/08/25 09:31:01;;;;;;;56.53;28.25;;;;;;;18.54;100.00;100626.00;4923242;29;20043;-90
2023/08/25 09:33:26;;;;;;;54.50;26.67;;;;;;;18.55;100.00;100635.91;4923422;29;20044;-90
2023/08/25 09:35:52;;;;;;;49.93;26.37;;;;;;;18.38;100.00;100631.50;4922949;29;20388;-90
2023/08/25 09:38:25;;;;;;;42.72;24.85;;;;;;;18.22;100.00;100629.81;4922738;29;20480;-90
2023/08/25 09:40:51;;;;;;;44.78;24.65;;;;;;;18.04;100.00;100623.75;4922566;29;20095;-89
2023/08/25 09:43:38;;;;;;;43.03;24.03;;;;;;;18.14;100.00;100614.69;4923381;29;20027;-90
2023/08/25 09:46:08;;;;;;;49.50;26.58;;;;;;;18.51;100.00;100616.41;4923267;29;20043;-88
2023/08/25 09:48:35;;;;;;;50.97;28.52;;;;;;;18.68;100.00;100634.53;4922769;29;20034;-89
2023/08/25 09:51:04;;;;;;;48.28;28.15;;;;;;;18.44;100.00;100629.56;4939790;29;20027;-89
2023/08/25 09:53:33;;;;;;;46.83;27.17;;;;;;;18.62;100.00;100624.66;4939489;29;20175;-89
2023/08/25 09:56:06;;;;;;;49.67;27.52;;;;;;;18.82;100.00;100621.84;4922518;29;20476;-88
2023/08/25 09:58:36;;;;;;;57.47;30.45;;;;;;;19.02;100.00;100623.81;4923015;29;20031;-93
2023/08/25 10:01:04;;;;;;;55.00;30.58;;;;;;;18.93;100.00;100620.78;4922728;29;20090;-89
2023/08/25 10:03:30;;;;;;;52.08;29.98;;;;;;;19.24;100.00;100619.91;4922575;29;20388;-89
2023/08/25 10:05:56;;;;;;;55.40;28.53;;;;;;;19.27;100.00;100630.34;4939707;29;20039;-85
2023/08/25 10:08:22;;;;;;;44.63;28.73;;;;;;;19.39;100.00;100627.28;4922677;29;20043;-86
2023/08/25 10:10:47;;;;;;;40.67;26.48;;;;;;;19.66;100.00;100621.41;4923131;29;20131;-86
2023/08/25 10:13:15;;;;;;;41.80;26.47;;;;;;;19.85;100.00;100621.63;4922064;29;20028;-86
2023/08/25 10:15:44;;;;;;;36.45;25.35;;;;;;;19.84;100.00;100627.41;4922599;29;20031;-86
2023/08/25 10:18:10;;;;;;;30.10;22.40;;;;;;;19.78;100.00;100649.47;4922245;29;20456;-86
2023/08/25 10:20:36;;;;;;;26.47;21.37;;;;;;;19.94;100.00;100652.13;4906596;29;20039;-86
2023/08/25 10:23:08;;;;;;;26.20;20.52;;;;;;;20.21;100.00;100629.69;4922215;29;20039;-86
2023/08/25 10:25:35;;;;;;;25.63;20.83;;;;;;;20.27;100.00;100630.44;4923059;29;20114;-86
2023/08/25 10:28:03;;;;;;;22.13;18.83;;;;;;;20.39;100.00;100630.94;4922245;29;20050;-86
2023/08/25 10:30:33;;;;;;;19.00;16.90;;;;;;;20.45;100.00;100635.28;4922256;29;20023;-86
2023/08/25 10:33:05;;;;;;;18.42;16.38;;;;;;;20.43;100.00;100642.19;4906268;29;20035;-86
2023/08/25 10:35:40;;;;;;;17.30;15.55;;;;;;;20.26;100.00;100640.66;4938344;29;20039;-87
2023/08/25 10:38:17;;;;;;;16.73;14.88;;;;;;;20.10;100.00;100645.44;4938701;29;20473;-86
2023/08/25 10:40:48;;;;;;;18.73;15.70;;;;;;;19.92;100.00;100643.34;4921858;29;20087;-86
2023/08/25 10:43:14;;;;;;;21.25;16.85;;;;;;;19.85;100.00;100649.16;4922513;29;20071;-87
2023/08/25 10:45:39;;;;;;;18.90;16.90;;;;;;;19.67;100.00;100653.34;4922103;29;20413;-86
2023/08/25 10:48:09;;;;;;;19.97;17.10;;;;;;;19.53;100.00;100655.88;4921771;29;20365;-87
2023/08/25 10:50:35;;;;;;;19.98;16.73;;;;;;;19.35;100.00;100645.47;4921196;29;20039;-87
2023/08/25 10:53:00;;;;;;;21.53;17.47;;;;;;;19.37;100.00;100640.50;4905533;29;20102;-84
2023/08/25 10:55:32;;;;;;;24.03;18.70;;;;;;;19.39;100.00;100639.13;4938330;29;20031;-84
2023/08/25 10:58:07;;;;;;;23.50;18.70;;;;;;;19.43;100.00;100640.22;4921758;29;20173;-84
2023/08/25 11:00:36;;;;;;;20.92;18.17;;;;;;;19.42;100.00;100635.78;4922436;29;20043;-84
2023/08/25 11:03:02;;;;;;;25.58;19.45;;;;;;;19.42;100.00;100638.56;4921204;29;20028;-84